sensor_id;sensor_type;location;lat;lon;timestamp;temperature;humidity
46217;DHT22;47258;59.424;13.482;2022-09-13T00:00:35;15.80;99.90
46217;DHT22;47258;59.424;13.482;2022-09-13T00:03:02;15.80;99.90
46217;DHT22;47258;59.424;13.482;2022-09-13T00:05:30;15.80;99.90
46217;DHT22;47258;59.424;13.482;2022-09-13T00:07:58;15.80;99.90
46217;DHT22;47258;59.424;13.482;2022-09-13T00:10:25;15.80;99.90
46217;DHT22;47258;59.424;13.482;2022-09-13T00:12:52;15.80;99.90
46217;DHT22;47258;59.424;13.482;2022-09-13T00:15:20;15.80;99.90
46217;DHT22;47258;59.424;13.482;2022-09-13T00:17:47;15.80;99.90
46217;DHT22;47258;59.424;13.482;2022-09-13T00:20:14;15.80;99.90
46217;DHT22;47258;59.424;13.482;2022-09-13T00:22:41;15.80;99.90
46217;DHT22;47258;59.424;13.482;2022-09-13T00:25:09;15.80;99.90
46217;DHT22;47258;59.424;13.482;2022-09-13T00:27:36;15.80;99.90
46217;DHT22;47258;59.424;13.482;2022-09-13T00:30:04;15.80;99.90
46217;DHT22;47258;59.424;13.482;2022-09-13T00:32:33;15.80;99.90
46217;DHT22;47258;59.424;13.482;2022-09-13T00:35:00;15.80;99.90
46217;DHT22;47258;59.424;13.482;2022-09-13T00:37:27;15.80;99.90
46217;DHT22;47258;59.424;13.482;2022-09-13T00:39:54;15.80;99.90
46217;DHT22;47258;59.424;13.482;2022-09-13T00:42:26;15.80;99.90
46217;DHT22;47258;59.424;13.482;2022-09-13T00:44:55;15.80;99.90
46217;DHT22;47258;59.424;13.482;2022-09-13T00:47:27;15.80;99.90
46217;DHT22;47258;59.424;13.482;2022-09-13T00:50:00;15.80;99.90
46217;DHT22;47258;59.424;13.482;2022-09-13T00:52:30;15.80;99.90
46217;DHT22;47258;59.424;13.482;2022-09-13T00:54:58;15.80;99.90
46217;DHT22;47258;59.424;13.482;2022-09-13T00:57:28;15.80;99.90
46217;DHT22;47258;59.424;13.482;2022-09-13T00:59:59;15.70;99.90
46217;DHT22;47258;59.424;13.482;2022-09-13T01:02:32;15.70;99.90
46217;DHT22;47258;59.424;13.482;2022-09-13T01:05:01;15.70;99.90
46217;DHT22;47258;59.424;13.482;2022-09-13T01:07:29;15.70;99.90
46217;DHT22;47258;59.424;13.482;2022-09-13T01:09:56;15.60;99.90
46217;DHT22;47258;59.424;13.482;2022-09-13T01:12:32;15.60;99.90
46217;DHT22;47258;59.424;13.482;2022-09-13T01:15:03;15.70;99.90
46217;DHT22;47258;59.424;13.482;2022-09-13T01:17:30;15.70;99.90
46217;DHT22;47258;59.424;13.482;2022-09-13T01:19:59;15.70;99.90
46217;DHT22;47258;59.424;13.482;2022-09-13T01:29:32;15.50;99.90
46217;DHT22;47258;59.424;13.482;2022-09-13T01:32:11;15.40;99.90
46217;DHT22;47258;59.424;13.482;2022-09-13T01:34:51;15.40;99.90
46217;DHT22;47258;59.424;13.482;2022-09-13T01:37:31;15.30;99.90
46217;DHT22;47258;59.424;13.482;2022-09-13T01:40:08;15.20;99.90
46217;DHT22;47258;59.424;13.482;2022-09-13T01:42:53;15.10;99.90
46217;DHT22;47258;59.424;13.482;2022-09-13T01:45:34;15.10;99.90
46217;DHT22;47258;59.424;13.482;2022-09-13T01:48:12;15.10;99.90
46217;DHT22;47258;59.424;13.482;2022-09-13T01:50:45;15.10;99.90
46217;DHT22;47258;59.424;13.482;2022-09-13T01:53:19;15.10;99.90
46217;DHT22;47258;59.424;13.482;2022-09-13T01:55:52;15.10;99.90
46217;DHT22;47258;59.424;13.482;2022-09-13T01:58:25;15.00;99.90
46217;DHT22;47258;59.424;13.482;2022-09-13T02:01:00;15.00;99.90
46217;DHT22;47258;59.424;13.482;2022-09-13T02:03:34;15.00;99.90
46217;DHT22;47258;59.424;13.482;2022-09-13T02:06:07;14.90;99.90
46217;DHT22;47258;59.424;13.482;2022-09-13T02:08:38;14.90;99.90
46217;DHT22;47258;59.424;13.482;2022-09-13T02:11:09;14.80;99.90
46217;DHT22;47258;59.424;13.482;2022-09-13T02:13:40;14.80;99.90
46217;DHT22;47258;59.424;13.482;2022-09-13T02:16:14;14.80;99.90
46217;DHT22;47258;59.424;13.482;2022-09-13T02:18:46;14.70;99.90
46217;DHT22;47258;59.424;13.482;2022-09-13T02:21:17;14.70;99.90
46217;DHT22;47258;59.424;13.482;2022-09-13T02:23:49;14.70;99.90
46217;DHT22;47258;59.424;13.482;2022-09-13T02:26:20;14.70;99.90
46217;DHT22;47258;59.424;13.482;2022-09-13T02:28:51;14.60;99.90
46217;DHT22;47258;59.424;13.482;2022-09-13T02:31:23;14.70;99.90
46217;DHT22;47258;59.424;13.482;2022-09-13T02:33:55;14.60;99.90
46217;DHT22;47258;59.424;13.482;2022-09-13T02:36:26;14.60;99.90
46217;DHT22;47258;59.424;13.482;2022-09-13T02:38:56;14.60;99.90
46217;DHT22;47258;59.424;13.482;2022-09-13T02:41:30;14.50;99.90
46217;DHT22;47258;59.424;13.482;2022-09-13T02:44:04;14.50;99.90
46217;DHT22;47258;59.424;13.482;2022-09-13T02:46:45;14.50;99.90
46217;DHT22;47258;59.424;13.482;2022-09-13T02:49:23;14.50;99.90
46217;DHT22;47258;59.424;13.482;2022-09-13T02:51:54;14.50;99.90
46217;DHT22;47258;59.424;13.482;2022-09-13T02:54:32;14.40;99.90
46217;DHT22;47258;59.424;13.482;2022-09-13T02:57:05;14.40;99.90
46217;DHT22;47258;59.424;13.482;2022-09-13T02:59:33;14.40;99.90
46217;DHT22;47258;59.424;13.482;2022-09-13T03:02:04;14.40;99.90
46217;DHT22;47258;59.424;13.482;2022-09-13T03:04:33;14.40;99.90
46217;DHT22;47258;59.424;13.482;2022-09-13T03:07:01;14.40;99.90
46217;DHT22;47258;59.424;13.482;2022-09-13T03:09:29;14.40;99.90
46217;DHT22;47258;59.424;13.482;2022-09-13T03:12:14;14.40;99.90
46217;DHT22;47258;59.424;13.482;2022-09-13T03:14:53;14.40;99.90
46217;DHT22;47258;59.424;13.482;2022-09-13T03:17:33;14.30;99.90
46217;DHT22;47258;59.424;13.482;2022-09-13T03:20:11;14.30;99.90
46217;DHT22;47258;59.424;13.482;2022-09-13T06:11:20;14.60;99.90
46217;DHT22;47258;59.424;13.482;2022-09-13T06:13:47;14.60;99.90
46217;DHT22;47258;59.424;13.482;2022-09-13T06:16:14;14.60;99.90
46217;DHT22;47258;59.424;13.482;2022-09-13T06:18:42;14.60;99.90
46217;DHT22;47258;59.424;13.482;2022-09-13T06:21:11;14.60;99.90
46217;DHT22;47258;59.424;13.482;2022-09-13T06:23:42;14.60;99.90
46217;DHT22;47258;59.424;13.482;2022-09-13T06:26:12;14.50;99.90
46217;DHT22;47258;59.424;13.482;2022-09-13T06:28:39;14.50;99.90
46217;DHT22;47258;59.424;13.482;2022-09-13T06:31:08;14.50;99.90
46217;DHT22;47258;59.424;13.482;2022-09-13T06:33:38;14.40;99.90
46217;DHT22;47258;59.424;13.482;2022-09-13T06:36:06;14.40;99.90
46217;DHT22;47258;59.424;13.482;2022-09-13T06:38:34;14.30;99.90
46217;DHT22;47258;59.424;13.482;2022-09-13T06:41:02;14.20;99.90
46217;DHT22;47258;59.424;13.482;2022-09-13T06:43:31;14.20;99.90
46217;DHT22;47258;59.424;13.482;2022-09-13T06:45:59;14.10;99.90
46217;DHT22;47258;59.424;13.482;2022-09-13T06:48:30;14.20;99.90
46217;DHT22;47258;59.424;13.482;2022-09-13T06:50:58;14.20;99.90
46217;DHT22;47258;59.424;13.482;2022-09-13T06:53:26;14.30;99.90
46217;DHT22;47258;59.424;13.482;2022-09-13T06:56:01;14.40;99.90
46217;DHT22;47258;59.424;13.482;2022-09-13T06:58:30;14.50;99.90
46217;DHT22;47258;59.424;13.482;2022-09-13T07:01:07;14.50;99.90
46217;DHT22;47258;59.424;13.482;2022-09-13T07:03:38;14.50;99.90
46217;DHT22;47258;59.424;13.482;2022-09-13T07:06:12;14.60;99.90
46217;DHT22;47258;59.424;13.482;2022-09-13T07:08:40;14.80;99.90
46217;DHT22;47258;59.424;13.482;2022-09-13T07:11:08;15.00;99.90
46217;DHT22;47258;59.424;13.482;2022-09-13T07:13:36;15.20;99.90
46217;DHT22;47258;59.424;13.482;2022-09-13T07:16:05;15.60;99.90
46217;DHT22;47258;59.424;13.482;2022-09-13T07:18:33;16.00;99.90
46217;DHT22;47258;59.424;13.482;2022-09-13T07:21:01;16.20;99.90
46217;DHT22;47258;59.424;13.482;2022-09-13T07:23:30;16.20;99.90
46217;DHT22;47258;59.424;13.482;2022-09-13T07:25:57;16.00;99.90
46217;DHT22;47258;59.424;13.482;2022-09-13T07:28:30;15.90;99.90
46217;DHT22;47258;59.424;13.482;2022-09-13T07:31:06;15.80;99.90
46217;DHT22;47258;59.424;13.482;2022-09-13T07:33:33;15.80;99.90
46217;DHT22;47258;59.424;13.482;2022-09-13T07:36:00;15.90;99.90
46217;DHT22;47258;59.424;13.482;2022-09-13T07:38:31;15.90;99.90
46217;DHT22;47258;59.424;13.482;2022-09-13T07:40:58;15.80;99.90
46217;DHT22;47258;59.424;13.482;2022-09-13T07:43:26;15.70;99.90
46217;DHT22;47258;59.424;13.482;2022-09-13T07:45:57;15.60;99.90
46217;DHT22;47258;59.424;13.482;2022-09-13T07:48:27;15.60;99.90
46217;DHT22;47258;59.424;13.482;2022-09-13T07:50:59;15.50;99.90
46217;DHT22;47258;59.424;13.482;2022-09-13T07:53:26;15.50;99.90
46217;DHT22;47258;59.424;13.482;2022-09-13T07:55:53;15.50;99.90
46217;DHT22;47258;59.424;13.482;2022-09-13T07:58:19;15.50;99.90
46217;DHT22;47258;59.424;13.482;2022-09-13T08:00:46;15.80;99.90
46217;DHT22;47258;59.424;13.482;2022-09-13T08:03:13;16.00;99.90
46217;DHT22;47258;59.424;13.482;2022-09-13T08:05:41;16.00;99.90
46217;DHT22;47258;59.424;13.482;2022-09-13T08:08:08;15.90;99.90
46217;DHT22;47258;59.424;13.482;2022-09-13T08:10:35;15.90;99.90
46217;DHT22;47258;59.424;13.482;2022-09-13T08:13:02;15.90;99.90
46217;DHT22;47258;59.424;13.482;2022-09-13T08:15:29;15.90;99.90
46217;DHT22;47258;59.424;13.482;2022-09-13T08:17:56;15.80;99.90
46217;DHT22;47258;59.424;13.482;2022-09-13T08:20:23;15.70;99.90
46217;DHT22;47258;59.424;13.482;2022-09-13T08:22:51;15.60;99.90
46217;DHT22;47258;59.424;13.482;2022-09-13T08:25:18;15.70;99.90
46217;DHT22;47258;59.424;13.482;2022-09-13T08:27:45;16.00;99.90
46217;DHT22;47258;59.424;13.482;2022-09-13T08:30:12;16.20;99.90
46217;DHT22;47258;59.424;13.482;2022-09-13T08:32:39;16.30;99.90
46217;DHT22;47258;59.424;13.482;2022-09-13T08:35:07;16.30;99.90
46217;DHT22;47258;59.424;13.482;2022-09-13T08:37:34;16.20;99.90
46217;DHT22;47258;59.424;13.482;2022-09-13T08:40:02;16.10;99.90
46217;DHT22;47258;59.424;13.482;2022-09-13T08:42:44;16.00;99.90
46217;DHT22;47258;59.424;13.482;2022-09-13T08:45:12;16.00;99.90
46217;DHT22;47258;59.424;13.482;2022-09-13T08:47:43;16.10;99.90
46217;DHT22;47258;59.424;13.482;2022-09-13T08:50:16;16.20;99.90
46217;DHT22;47258;59.424;13.482;2022-09-13T08:52:50;16.20;99.90
46217;DHT22;47258;59.424;13.482;2022-09-13T08:55:31;16.30;99.90
46217;DHT22;47258;59.424;13.482;2022-09-13T08:58:05;16.50;99.90
46217;DHT22;47258;59.424;13.482;2022-09-13T09:00:39;16.50;99.90
46217;DHT22;47258;59.424;13.482;2022-09-13T09:03:18;16.60;99.90
46217;DHT22;47258;59.424;13.482;2022-09-13T09:05:47;16.80;99.90
46217;DHT22;47258;59.424;13.482;2022-09-13T09:08:21;16.80;99.90
46217;DHT22;47258;59.424;13.482;2022-09-13T09:10:54;16.60;99.90
46217;DHT22;47258;59.424;13.482;2022-09-13T09:13:26;16.40;99.90
46217;DHT22;47258;59.424;13.482;2022-09-13T09:15:59;16.30;99.90
46217;DHT22;47258;59.424;13.482;2022-09-13T09:18:29;16.20;99.90
46217;DHT22;47258;59.424;13.482;2022-09-13T09:21:00;16.20;99.90
46217;DHT22;47258;59.424;13.482;2022-09-13T09:23:31;16.00;99.90
46217;DHT22;47258;59.424;13.482;2022-09-13T09:26:13;16.00;99.90
46217;DHT22;47258;59.424;13.482;2022-09-13T09:28:42;15.90;99.90
46217;DHT22;47258;59.424;13.482;2022-09-13T09:31:13;15.90;99.90
46217;DHT22;47258;59.424;13.482;2022-09-13T09:33:51;15.80;99.90
46217;DHT22;47258;59.424;13.482;2022-09-13T09:36:27;15.80;99.90
46217;DHT22;47258;59.424;13.482;2022-09-13T09:38:57;15.80;99.90
46217;DHT22;47258;59.424;13.482;2022-09-13T09:41:28;15.80;99.90
46217;DHT22;47258;59.424;13.482;2022-09-13T09:44:02;15.80;99.90
46217;DHT22;47258;59.424;13.482;2022-09-13T09:46:34;15.80;99.90
46217;DHT22;47258;59.424;13.482;2022-09-13T09:49:10;15.80;99.90
46217;DHT22;47258;59.424;13.482;2022-09-13T09:51:59;15.80;99.90
46217;DHT22;47258;59.424;13.482;2022-09-13T09:54:27;15.70;99.90
46217;DHT22;47258;59.424;13.482;2022-09-13T09:56:57;15.80;99.90
46217;DHT22;47258;59.424;13.482;2022-09-13T09:59:26;16.00;99.90
46217;DHT22;47258;59.424;13.482;2022-09-13T10:01:54;16.10;99.90
46217;DHT22;47258;59.424;13.482;2022-09-13T10:04:23;16.20;99.90
46217;DHT22;47258;59.424;13.482;2022-09-13T10:07:08;16.20;99.90
46217;DHT22;47258;59.424;13.482;2022-09-13T10:09:36;16.00;99.90
46217;DHT22;47258;59.424;13.482;2022-09-13T10:12:05;16.00;99.90
46217;DHT22;47258;59.424;13.482;2022-09-13T10:14:37;15.90;99.90
46217;DHT22;47258;59.424;13.482;2022-09-13T10:17:17;15.90;99.90
46217;DHT22;47258;59.424;13.482;2022-09-13T10:19:52;16.00;99.90
46217;DHT22;47258;59.424;13.482;2022-09-13T10:22:20;16.30;99.90
46217;DHT22;47258;59.424;13.482;2022-09-13T10:24:47;16.70;99.90
46217;DHT22;47258;59.424;13.482;2022-09-13T10:27:22;16.80;99.90
46217;DHT22;47258;59.424;13.482;2022-09-13T10:29:52;17.00;99.90
46217;DHT22;47258;59.424;13.482;2022-09-13T10:32:24;17.00;99.90
46217;DHT22;47258;59.424;13.482;2022-09-13T10:34:52;17.10;99.90
46217;DHT22;47258;59.424;13.482;2022-09-13T10:37:23;17.20;99.90
46217;DHT22;47258;59.424;13.482;2022-09-13T10:40:00;17.20;99.90
46217;DHT22;47258;59.424;13.482;2022-09-13T10:42:30;17.20;99.90
46217;DHT22;47258;59.424;13.482;2022-09-13T10:44:59;17.40;99.90
46217;DHT22;47258;59.424;13.482;2022-09-13T10:47:30;17.30;99.90
46217;DHT22;47258;59.424;13.482;2022-09-13T10:50:11;17.30;99.90
46217;DHT22;47258;59.424;13.482;2022-09-13T10:52:41;17.20;99.90
46217;DHT22;47258;59.424;13.482;2022-09-13T10:55:31;17.10;99.90
46217;DHT22;47258;59.424;13.482;2022-09-13T10:58:26;17.00;99.90
46217;DHT22;47258;59.424;13.482;2022-09-13T11:01:29;17.00;99.90
46217;DHT22;47258;59.424;13.482;2022-09-13T11:04:38;17.00;99.90
46217;DHT22;47258;59.424;13.482;2022-09-13T11:07:21;17.00;99.90
46217;DHT22;47258;59.424;13.482;2022-09-13T11:09:56;17.00;99.90
46217;DHT22;47258;59.424;13.482;2022-09-13T11:12:30;17.20;99.90
46217;DHT22;47258;59.424;13.482;2022-09-13T11:15:12;17.30;99.90
46217;DHT22;47258;59.424;13.482;2022-09-13T11:18:03;17.40;99.90
46217;DHT22;47258;59.424;13.482;2022-09-13T11:20:41;17.70;99.90
46217;DHT22;47258;59.424;13.482;2022-09-13T11:26:18;17.90;99.90
46217;DHT22;47258;59.424;13.482;2022-09-13T11:28:53;17.70;99.90
46217;DHT22;47258;59.424;13.482;2022-09-13T11:31:35;17.60;99.90
46217;DHT22;47258;59.424;13.482;2022-09-13T11:34:18;17.70;99.90
46217;DHT22;47258;59.424;13.482;2022-09-13T11:37:04;17.60;99.90
46217;DHT22;47258;59.424;13.482;2022-09-13T11:39:38;17.40;99.90
46217;DHT22;47258;59.424;13.482;2022-09-13T11:42:19;17.20;99.90
46217;DHT22;47258;59.424;13.482;2022-09-13T11:45:12;17.20;99.90
46217;DHT22;47258;59.424;13.482;2022-09-13T11:47:47;17.10;99.90
46217;DHT22;47258;59.424;13.482;2022-09-13T11:50:28;17.10;99.90
46217;DHT22;47258;59.424;13.482;2022-09-13T11:53:10;17.00;99.90
46217;DHT22;47258;59.424;13.482;2022-09-13T11:55:46;16.90;99.90
46217;DHT22;47258;59.424;13.482;2022-09-13T11:58:17;17.00;99.90
46217;DHT22;47258;59.424;13.482;2022-09-13T12:00:49;17.10;99.90
46217;DHT22;47258;59.424;13.482;2022-09-13T12:03:24;17.10;99.90
46217;DHT22;47258;59.424;13.482;2022-09-13T12:05:54;17.10;99.90
46217;DHT22;47258;59.424;13.482;2022-09-13T12:08:25;17.00;99.90
46217;DHT22;47258;59.424;13.482;2022-09-13T12:10:56;16.80;99.90
46217;DHT22;47258;59.424;13.482;2022-09-13T12:13:25;16.60;99.90
46217;DHT22;47258;59.424;13.482;2022-09-13T12:15:55;16.50;99.90
46217;DHT22;47258;59.424;13.482;2022-09-13T12:18:27;16.30;99.90
46217;DHT22;47258;59.424;13.482;2022-09-13T12:20:59;16.00;99.90
46217;DHT22;47258;59.424;13.482;2022-09-13T12:23:32;15.70;99.90
46217;DHT22;47258;59.424;13.482;2022-09-13T12:26:04;15.50;99.90
46217;DHT22;47258;59.424;13.482;2022-09-13T12:28:36;15.40;99.90
46217;DHT22;47258;59.424;13.482;2022-09-13T12:31:09;15.40;99.90
46217;DHT22;47258;59.424;13.482;2022-09-13T12:33:40;15.40;99.90
46217;DHT22;47258;59.424;13.482;2022-09-13T12:36:32;15.60;99.90
46217;DHT22;47258;59.424;13.482;2022-09-13T12:39:25;15.80;99.90
46217;DHT22;47258;59.424;13.482;2022-09-13T12:42:09;15.90;99.90
46217;DHT22;47258;59.424;13.482;2022-09-13T12:44:58;15.80;99.90
46217;DHT22;47258;59.424;13.482;2022-09-13T12:47:52;15.80;99.90
46217;DHT22;47258;59.424;13.482;2022-09-13T12:50:43;15.80;99.90
46217;DHT22;47258;59.424;13.482;2022-09-13T12:53:42;16.00;99.90
46217;DHT22;47258;59.424;13.482;2022-09-13T12:56:30;16.00;99.90
46217;DHT22;47258;59.424;13.482;2022-09-13T13:05:06;15.60;99.90
46217;DHT22;47258;59.424;13.482;2022-09-13T13:07:51;15.30;99.90
46217;DHT22;47258;59.424;13.482;2022-09-13T13:10:24;15.00;99.90
46217;DHT22;47258;59.424;13.482;2022-09-13T13:12:52;14.80;99.90
46217;DHT22;47258;59.424;13.482;2022-09-13T13:15:54;14.60;99.90
46217;DHT22;47258;59.424;13.482;2022-09-13T13:18:25;14.40;99.90
46217;DHT22;47258;59.424;13.482;2022-09-13T13:21:34;14.20;99.90
